createdAt,value
2019-03-09T00:02:52.779Z,99457.07
2019-03-09T00:05:55.696Z,99445.54
2019-03-09T00:08:58.875Z,99438.59
2019-03-09T00:12:02.176Z,99434.72
2019-03-09T00:15:05.856Z,99419.80
2019-03-09T00:18:09.431Z,99424.63
2019-03-09T00:21:12.910Z,99410.45
2019-03-09T00:24:42.296Z,99413.81
2019-03-09T00:27:49.421Z,99402.84
2019-03-09T00:31:01.253Z,99389.52
2019-03-09T00:34:04.777Z,99385.80
2019-03-09T00:37:08.333Z,99380.76
2019-03-09T00:40:13.005Z,99382.17
2019-03-09T00:43:15.954Z,99375.01
2019-03-09T00:46:19.170Z,99369.80
2019-03-09T00:49:22.536Z,99377.94
2019-03-09T00:52:25.814Z,99376.16
2019-03-09T00:55:29.088Z,99372.67
2019-03-09T00:58:34.380Z,99367.13
2019-03-09T01:01:38.375Z,99368.00
2019-03-09T01:04:41.705Z,99369.41
2019-03-09T01:07:44.929Z,99365.88
2019-03-09T01:10:48.213Z,99372.53
2019-03-09T01:13:52.194Z,99359.31
2019-03-09T01:16:55.405Z,99342.42
2019-03-09T01:19:58.338Z,99357.33
2019-03-09T01:23:02.288Z,99337.09
2019-03-09T01:26:05.246Z,99328.74
2019-03-09T01:29:08.723Z,99329.64
2019-03-09T01:32:11.840Z,99315.01
2019-03-09T01:35:15.866Z,99304.14
2019-03-09T01:38:19.718Z,99304.80
2019-03-09T01:41:22.642Z,99307.39
2019-03-09T01:44:27.142Z,99314.37
2019-03-09T01:47:30.698Z,99300.31
2019-03-09T01:50:33.657Z,99289.53
2019-03-09T01:53:37.167Z,99286.16
2019-03-09T01:56:40.429Z,99279.12
2019-03-09T01:59:43.373Z,99281.61
2019-03-09T02:02:47.834Z,99263.80
2019-03-09T02:05:51.313Z,99261.70
2019-03-09T02:08:54.274Z,99243.47
2019-03-09T02:11:57.185Z,99250.95
2019-03-09T02:15:00.822Z,99238.80
2019-03-09T02:18:04.212Z,99232.09
2019-03-09T02:21:07.514Z,99239.13
2019-03-09T02:24:11.019Z,99235.00
2019-03-09T02:27:14.223Z,99235.86
2019-03-09T02:30:17.607Z,99222.09
2019-03-09T02:33:21.225Z,99218.52
2019-03-09T02:36:24.606Z,99210.09
2019-03-09T02:39:44.729Z,99206.27
2019-03-09T02:42:48.271Z,99207.64
2019-03-09T02:45:51.530Z,99205.58
2019-03-09T02:48:54.756Z,99198.81
2019-03-09T02:51:57.973Z,99196.47
2019-03-09T02:55:01.657Z,99198.84
2019-03-09T02:58:04.666Z,99192.32
2019-03-09T03:01:19.687Z,99191.20
2019-03-09T03:04:23.203Z,99187.05
2019-03-09T03:07:27.247Z,99199.41
2019-03-09T03:10:31.313Z,99203.05
2019-03-09T03:13:34.252Z,99202.80
2019-03-09T03:16:37.836Z,99197.05
2019-03-09T03:19:41.444Z,99183.94
2019-03-09T03:22:44.394Z,99191.95
2019-03-09T03:25:47.697Z,99195.28
2019-03-09T03:28:51.560Z,99189.56
2019-03-09T03:31:54.530Z,99177.74
2019-03-09T03:34:57.453Z,99185.48
2019-03-09T03:38:00.385Z,99203.81
2019-03-09T03:41:03.643Z,99206.17
2019-03-09T03:44:06.963Z,99206.08
2019-03-09T03:47:10.173Z,99215.81
2019-03-09T03:50:13.531Z,99206.14
2019-03-09T03:53:17.488Z,99201.20
2019-03-09T03:56:20.422Z,99204.41
2019-03-09T03:59:23.649Z,99196.80
2019-03-09T04:02:26.913Z,99189.44
2019-03-09T04:05:30.284Z,99194.23
2019-03-09T04:08:33.522Z,99215.63
2019-03-09T04:11:36.442Z,99217.94
2019-03-09T04:14:39.372Z,99205.05
2019-03-09T04:17:42.936Z,99208.88
2019-03-09T04:20:46.902Z,99210.61
2019-03-09T04:23:49.825Z,99218.42
2019-03-09T04:26:53.127Z,99215.92
2019-03-09T04:29:56.077Z,99206.28
2019-03-09T04:32:59.580Z,99203.64
2019-03-09T04:36:02.505Z,99211.73
2019-03-09T04:39:06.050Z,99261.81
2019-03-09T04:42:09.101Z,99238.96
2019-03-09T04:45:12.098Z,99259.53
2019-03-09T04:48:15.355Z,99283.19
2019-03-09T04:51:18.888Z,99280.09
2019-03-09T04:54:22.689Z,99277.41
2019-03-09T04:57:25.631Z,99295.43
2019-03-09T05:00:28.947Z,99280.04
2019-03-09T05:03:32.179Z,99282.58
2019-03-09T05:06:35.114Z,99274.25
2019-03-09T05:10:05.903Z,99286.98
2019-03-09T05:13:44.232Z,99284.11
2019-03-09T05:16:47.154Z,99310.25
2019-03-09T05:19:50.491Z,99311.42
2019-03-09T05:22:53.483Z,99329.94
2019-03-09T05:25:57.595Z,99329.00
2019-03-09T05:29:01.212Z,99309.27
2019-03-09T05:32:04.710Z,99314.09
2019-03-09T05:35:08.122Z,99328.52
2019-03-09T05:38:11.047Z,99325.47
2019-03-09T05:41:13.995Z,99335.92
2019-03-09T05:44:17.267Z,99348.02
2019-03-09T05:47:20.566Z,99367.25
2019-03-09T05:50:23.479Z,99385.31
2019-03-09T05:53:26.691Z,99369.17
2019-03-09T05:56:30.014Z,99359.59
2019-03-09T05:59:33.646Z,99360.45
2019-03-09T06:02:36.949Z,99340.87
2019-03-09T06:05:59.285Z,99353.56
2019-03-09T06:09:02.579Z,99347.30
2019-03-09T06:12:07.430Z,99349.13
2019-03-09T06:15:10.492Z,99330.37
2019-03-09T06:18:13.764Z,99328.28
2019-03-09T06:21:17.440Z,99314.75
2019-03-09T06:24:20.346Z,99322.27
2019-03-09T06:27:24.033Z,99333.20
2019-03-09T06:30:26.976Z,99340.63
2019-03-09T06:33:32.107Z,99334.39
2019-03-09T06:37:12.360Z,99335.83
2019-03-09T06:40:15.750Z,99349.34
2019-03-09T06:43:18.689Z,99376.66
2019-03-09T06:46:21.626Z,99391.06
2019-03-09T06:49:25.252Z,99404.70
2019-03-09T06:52:28.563Z,99418.15
2019-03-09T06:55:31.797Z,99414.20
2019-03-09T06:58:35.082Z,99418.09
2019-03-09T07:01:38.016Z,99411.80
2019-03-09T07:04:41.246Z,99419.20
2019-03-09T07:07:44.153Z,99438.02
2019-03-09T07:10:47.076Z,99431.45
2019-03-09T07:13:53.229Z,99430.41
2019-03-09T07:16:57.012Z,99433.35
2019-03-09T07:20:11.861Z,99436.70
2019-03-09T07:23:06.757Z,99438.00
2019-03-09T07:26:09.684Z,99434.91
2019-03-09T07:29:12.941Z,99449.35
2019-03-09T07:32:15.860Z,99457.21
2019-03-09T07:35:19.140Z,99450.22
2019-03-09T07:38:22.076Z,99447.86
2019-03-09T07:41:25.320Z,99432.77
2019-03-09T07:44:28.999Z,99440.98
2019-03-09T07:47:32.189Z,99423.22
2019-03-09T07:50:35.115Z,99427.25
2019-03-09T07:53:38.045Z,99428.27
2019-03-09T07:56:41.292Z,99467.81
2019-03-09T07:59:44.599Z,99479.62
2019-03-09T08:02:48.273Z,99482.14
2019-03-09T08:05:51.502Z,99466.83
2019-03-09T08:08:55.059Z,99477.61
2019-03-09T08:11:58.357Z,99482.47
2019-03-09T08:15:01.559Z,99480.25
2019-03-09T08:18:05.013Z,99484.22
2019-03-09T08:21:08.055Z,99473.38
2019-03-09T08:24:12.545Z,99454.94
2019-03-09T08:27:15.728Z,99450.62
2019-03-09T08:30:20.643Z,99452.45
2019-03-09T08:33:23.561Z,99464.91
2019-03-09T08:36:26.769Z,99464.14
2019-03-09T08:39:29.900Z,99461.38
2019-03-09T08:42:33.342Z,99469.73
2019-03-09T08:45:36.260Z,99461.41
2019-03-09T08:48:39.210Z,99469.86
2019-03-09T08:51:42.490Z,99457.09
2019-03-09T08:54:45.432Z,99454.35
2019-03-09T08:57:48.364Z,99463.56
2019-03-09T09:00:51.674Z,99448.78
2019-03-09T09:03:55.422Z,99440.06
2019-03-09T09:06:58.833Z,99457.05
2019-03-09T09:10:01.843Z,99457.24
2019-03-09T09:13:05.347Z,99468.29
2019-03-09T09:16:08.277Z,99477.72
2019-03-09T09:19:11.795Z,99494.78
2019-03-09T09:22:15.373Z,99480.97
2019-03-09T09:25:18.629Z,99494.03
2019-03-09T09:28:21.869Z,99485.91
2019-03-09T09:31:24.819Z,99493.77
2019-03-09T09:34:28.061Z,99494.98
2019-03-09T09:37:30.961Z,99486.23
2019-03-09T09:40:34.529Z,99498.57
2019-03-09T09:43:37.752Z,99483.13
2019-03-09T09:46:40.983Z,99470.44
2019-03-09T09:49:44.621Z,99471.10
2019-03-09T09:52:47.645Z,99478.47
2019-03-09T09:55:50.855Z,99464.56
2019-03-09T09:58:54.044Z,99475.13
2019-03-09T10:01:57.589Z,99486.19
2019-03-09T10:05:00.794Z,99495.52
2019-03-09T10:08:03.737Z,99515.53
2019-03-09T10:11:07.319Z,99528.36
2019-03-09T10:14:10.794Z,99525.55
2019-03-09T10:17:13.868Z,99527.29
2019-03-09T10:20:17.165Z,99519.59
2019-03-09T10:23:20.384Z,99528.84
2019-03-09T10:26:26.572Z,99519.41
2019-03-09T10:29:29.189Z,99523.30
2019-03-09T10:32:32.183Z,99520.23
2019-03-09T10:35:35.633Z,99500.69
2019-03-09T10:38:38.567Z,99506.56
2019-03-09T10:41:46.411Z,99491.92
2019-03-09T10:44:50.321Z,99498.46
2019-03-09T10:47:53.282Z,99504.20
2019-03-09T10:50:56.767Z,99482.64
2019-03-09T10:53:59.736Z,99476.63
2019-03-09T10:57:03.455Z,99461.20
2019-03-09T11:00:15.440Z,99466.11
2019-03-09T11:03:19.339Z,99457.65
2019-03-09T11:06:22.383Z,99454.52
2019-03-09T11:09:25.354Z,99452.44
2019-03-09T11:12:28.893Z,99430.75
2019-03-09T11:15:39.452Z,99446.20
2019-03-09T11:18:42.428Z,99428.23
2019-03-09T11:21:45.381Z,99426.45
2019-03-09T11:24:48.543Z,99402.30
2019-03-09T11:27:53.057Z,99404.61
2019-03-09T11:30:56.400Z,99406.16
2019-03-09T11:34:00.401Z,99397.83
2019-03-09T11:37:03.600Z,99397.23
2019-03-09T11:40:07.132Z,99386.09
2019-03-09T11:43:10.843Z,99384.19
2019-03-09T11:46:14.171Z,99396.25
2019-03-09T11:49:17.479Z,99415.98
2019-03-09T11:52:20.801Z,99415.28
2019-03-09T11:55:24.078Z,99402.62
2019-03-09T11:58:27.100Z,99396.64
2019-03-09T12:01:30.961Z,99402.39
2019-03-09T12:04:33.903Z,99374.19
2019-03-09T12:07:37.409Z,99356.73
2019-03-09T12:10:40.998Z,99326.16
2019-03-09T12:13:43.936Z,99348.27
2019-03-09T12:16:47.196Z,99336.20
2019-03-09T12:19:50.160Z,99319.55
2019-03-09T12:23:00.993Z,99319.38
2019-03-09T12:25:58.601Z,99330.80
2019-03-09T12:29:01.827Z,99311.69
2019-03-09T12:32:04.765Z,99297.56
2019-03-09T12:35:08.337Z,99303.33
2019-03-09T12:38:12.012Z,99287.55
2019-03-09T12:41:14.941Z,99284.04
2019-03-09T12:44:17.949Z,99291.86
2019-03-09T12:47:21.279Z,99281.72
2019-03-09T12:50:24.479Z,99281.20
2019-03-09T12:53:27.433Z,99251.14
2019-03-09T12:56:30.391Z,99252.08
2019-03-09T12:59:33.664Z,99242.27
2019-03-09T13:02:36.596Z,99249.70
2019-03-09T13:05:40.128Z,99236.64
2019-03-09T13:08:43.425Z,99226.50
2019-03-09T13:11:46.765Z,99224.27
2019-03-09T13:14:49.987Z,99185.19
2019-03-09T13:17:52.924Z,99187.57
2019-03-09T13:20:55.836Z,99190.08
2019-03-09T13:23:59.172Z,99160.47
2019-03-09T13:27:02.390Z,99185.87
2019-03-09T13:30:07.130Z,99184.36
2019-03-09T13:33:10.561Z,99160.82
2019-03-09T13:36:14.200Z,99153.11
2019-03-09T13:39:17.518Z,99171.66
2019-03-09T13:42:20.471Z,99171.30
2019-03-09T13:45:23.707Z,99136.44
2019-03-09T13:48:26.959Z,99126.88
2019-03-09T13:51:30.228Z,99122.64
2019-03-09T13:54:33.510Z,99117.69
2019-03-09T13:57:36.437Z,99091.00
2019-03-09T14:00:41.872Z,99090.22
2019-03-09T14:03:45.132Z,99113.42
2019-03-09T14:06:49.326Z,99124.86
2019-03-09T14:09:52.604Z,99155.22
2019-03-09T14:12:55.561Z,99160.36
2019-03-09T14:15:58.485Z,99158.77
2019-03-09T14:19:02.311Z,99161.73
2019-03-09T14:22:05.259Z,99148.97
2019-03-09T14:25:08.881Z,99153.30
2019-03-09T14:28:12.224Z,99144.55
2019-03-09T14:31:15.921Z,99134.85
2019-03-09T14:34:19.216Z,99129.78
2019-03-09T14:37:22.136Z,99117.64
2019-03-09T14:40:25.697Z,99100.06
2019-03-09T14:43:28.652Z,99100.89
2019-03-09T14:46:32.634Z,99105.80
2019-03-09T14:49:36.760Z,99123.75
2019-03-09T14:52:39.810Z,99113.80
2019-03-09T14:55:42.762Z,99095.64
2019-03-09T14:58:46.382Z,99130.95
2019-03-09T15:01:49.664Z,99122.20
2019-03-09T15:04:52.617Z,99131.67
2019-03-09T15:07:55.549Z,99134.80
2019-03-09T15:10:58.860Z,99130.92
2019-03-09T15:14:02.140Z,99140.80
2019-03-09T15:17:05.079Z,99102.56
2019-03-09T15:20:09.335Z,99101.03
2019-03-09T15:23:13.719Z,99083.42
2019-03-09T15:26:17.096Z,99099.34
2019-03-09T15:29:20.976Z,99095.85
2019-03-09T15:32:24.172Z,99090.57
2019-03-09T15:35:27.235Z,99073.98
2019-03-09T15:38:30.656Z,99069.86
2019-03-09T15:41:33.962Z,99075.01
2019-03-09T15:44:36.900Z,99108.77
2019-03-09T15:47:39.826Z,99122.92
2019-03-09T15:50:43.105Z,99132.77
2019-03-09T15:53:46.067Z,99160.72
2019-03-09T15:56:48.970Z,99205.54
2019-03-09T15:59:51.915Z,99260.21
2019-03-09T16:02:54.842Z,99250.33
2019-03-09T16:05:57.805Z,99253.05
2019-03-09T16:09:00.717Z,99249.80
2019-03-09T16:12:04.062Z,99240.95
2019-03-09T16:15:08.601Z,99230.47
2019-03-09T16:18:12.288Z,99237.48
2019-03-09T16:21:15.594Z,99255.74
2019-03-09T16:24:18.911Z,99266.61
2019-03-09T16:27:21.867Z,99287.83
2019-03-09T16:30:24.784Z,99351.95
2019-03-09T16:33:28.085Z,99433.88
2019-03-09T16:36:31.040Z,99433.45
2019-03-09T16:39:34.378Z,99447.02
2019-03-09T16:42:37.324Z,99395.42
2019-03-09T16:45:40.512Z,99437.66
2019-03-09T16:48:43.820Z,99428.73
2019-03-09T16:51:47.169Z,99431.52
2019-03-09T16:54:50.150Z,99442.06
2019-03-09T16:57:53.091Z,99442.80
2019-03-09T17:00:56.981Z,99451.77
2019-03-09T17:04:00.578Z,99465.12
2019-03-09T17:07:03.573Z,99476.06
2019-03-09T17:10:06.848Z,99460.36
2019-03-09T17:13:10.476Z,99490.34
2019-03-09T17:16:13.383Z,99497.47
2019-03-09T17:19:16.647Z,99522.93
2019-03-09T17:22:20.254Z,99548.27
2019-03-09T17:25:23.219Z,99555.81
2019-03-09T17:28:26.159Z,99557.48
2019-03-09T17:31:29.460Z,99562.59
2019-03-09T17:34:32.522Z,99584.81
2019-03-09T17:37:35.441Z,99574.45
2019-03-09T17:40:38.676Z,99603.27
2019-03-09T17:43:41.595Z,99600.36
2019-03-09T17:46:44.871Z,99620.73
2019-03-09T17:49:48.463Z,99621.17
2019-03-09T17:52:51.835Z,99635.58
2019-03-09T17:55:55.157Z,99644.03
2019-03-09T17:58:59.553Z,99650.36
2019-03-09T18:02:02.897Z,99664.43
2019-03-09T18:05:07.220Z,99668.81
2019-03-09T18:08:10.364Z,99676.62
2019-03-09T18:11:13.424Z,99673.31
2019-03-09T18:14:17.551Z,99689.05
2019-03-09T18:17:20.813Z,99685.77
2019-03-09T18:20:23.763Z,99704.34
2019-03-09T18:23:26.716Z,99716.52
2019-03-09T18:26:29.964Z,99722.03
2019-03-09T18:29:34.261Z,99724.88
2019-03-09T18:32:37.181Z,99730.53
2019-03-09T18:35:41.845Z,99734.48
2019-03-09T18:38:44.984Z,99747.38
2019-03-09T18:41:48.553Z,99750.22
2019-03-09T18:44:51.468Z,99756.48
2019-03-09T18:47:54.985Z,99762.50
2019-03-09T18:50:58.306Z,99773.39
2019-03-09T18:54:01.259Z,99769.00
2019-03-09T18:57:05.329Z,99775.06
2019-03-09T19:00:11.284Z,99785.59
2019-03-09T19:03:15.674Z,99783.09
2019-03-09T19:06:19.237Z,99784.52
2019-03-09T19:09:22.482Z,99801.36
2019-03-09T19:12:26.140Z,99804.64
2019-03-09T19:15:29.053Z,99817.84
2019-03-09T19:18:31.994Z,99826.80
2019-03-09T19:21:35.384Z,99822.62
2019-03-09T19:24:38.336Z,99823.84
2019-03-09T19:27:41.715Z,99821.98
2019-03-09T19:30:44.945Z,99819.00
2019-03-09T19:33:48.247Z,99817.59
2019-03-09T19:36:51.536Z,99818.67
2019-03-09T19:39:55.144Z,99816.82
2019-03-09T19:42:58.831Z,99823.73
2019-03-09T19:46:02.432Z,99832.06
2019-03-09T19:49:05.519Z,99832.18
2019-03-09T19:52:09.121Z,99835.64
2019-03-09T19:55:12.748Z,99819.15
2019-03-09T19:58:16.021Z,99821.02
2019-03-09T20:01:19.286Z,99824.94
2019-03-09T20:04:22.213Z,99822.19
2019-03-09T20:07:25.179Z,99826.56
2019-03-09T20:10:29.850Z,99821.78
2019-03-09T20:13:33.372Z,99821.95
2019-03-09T20:16:36.315Z,99830.72
2019-03-09T20:19:39.627Z,99824.04
2019-03-09T20:22:43.271Z,99822.98
2019-03-09T20:25:46.213Z,99830.57
2019-03-09T20:28:49.138Z,99828.25
2019-03-09T20:31:52.505Z,99836.53
2019-03-09T20:34:55.422Z,99825.84
2019-03-09T20:37:58.392Z,99826.85
2019-03-09T20:41:02.057Z,99831.69
2019-03-09T20:44:05.364Z,99833.02
2019-03-09T20:47:09.107Z,99841.86
2019-03-09T20:50:13.391Z,99838.83
2019-03-09T20:53:16.861Z,99840.84
2019-03-09T20:56:20.485Z,99844.29
2019-03-09T20:59:24.413Z,99842.23
2019-03-09T21:02:27.653Z,99849.52
2019-03-09T21:05:30.582Z,99846.56
2019-03-09T21:08:34.088Z,99863.50
2019-03-09T21:11:37.030Z,99857.97
2019-03-09T21:14:40.228Z,99852.94
2019-03-09T21:17:43.863Z,99863.27
2019-03-09T21:20:46.771Z,99862.80
2019-03-09T21:23:50.045Z,99858.73
2019-03-09T21:26:53.762Z,99862.69
2019-03-09T21:29:57.042Z,99854.36
2019-03-09T21:33:00.050Z,99848.53
2019-03-09T21:36:03.039Z,99861.73
2019-03-09T21:39:07.235Z,99852.16
2019-03-09T21:42:12.067Z,99860.86
2019-03-09T21:45:15.309Z,99855.61
2019-03-09T21:48:18.901Z,99854.36
2019-03-09T21:51:22.187Z,99867.20
2019-03-09T21:54:25.794Z,99859.20
2019-03-09T21:57:28.830Z,99867.20
2019-03-09T22:00:32.496Z,99863.48
2019-03-09T22:03:35.531Z,99855.63
2019-03-09T22:06:39.419Z,99859.28
2019-03-09T22:09:42.770Z,99853.05
2019-03-09T22:12:45.809Z,99869.93
2019-03-09T22:15:48.716Z,99874.67
2019-03-09T22:18:51.670Z,99868.06
2019-03-09T22:21:54.936Z,99864.15
2019-03-09T22:24:59.542Z,99864.20
2019-03-09T22:28:02.542Z,99864.51
2019-03-09T22:31:05.779Z,99860.69
2019-03-09T22:34:09.012Z,99864.16
2019-03-09T22:37:12.231Z,99863.78
2019-03-09T22:40:15.222Z,99866.77
2019-03-09T22:43:18.537Z,99862.38
2019-03-09T22:46:21.798Z,99856.66
2019-03-09T22:49:25.109Z,99860.09
2019-03-09T22:52:28.285Z,99856.16
2019-03-09T22:55:31.268Z,99857.08
2019-03-09T22:58:34.347Z,99849.10
2019-03-09T23:01:37.765Z,99847.80
2019-03-09T23:04:40.831Z,99846.55
2019-03-09T23:07:43.746Z,99850.94
2019-03-09T23:10:46.985Z,99843.77
2019-03-09T23:13:50.887Z,99855.25
2019-03-09T23:16:54.157Z,99858.76
2019-03-09T23:19:57.087Z,99842.06
2019-03-09T23:23:00.327Z,99834.17
2019-03-09T23:26:03.928Z,99845.23
2019-03-09T23:29:07.042Z,99845.12
2019-03-09T23:32:09.960Z,99835.03
2019-03-09T23:35:13.439Z,99830.97
2019-03-09T23:38:16.343Z,99822.62
2019-03-09T23:41:20.409Z,99826.59
2019-03-09T23:44:23.655Z,99832.23
2019-03-09T23:47:26.909Z,99829.58
2019-03-09T23:50:29.853Z,99819.05
2019-03-09T23:53:32.788Z,99818.21
2019-03-09T23:56:37.109Z,99809.80
2019-03-09T23:59:40.380Z,99808.02
